createdAt,value
2023-03-16T06:40:33.142Z,2.30
2023-03-16T06:43:02.177Z,2.50
2023-03-16T06:45:29.809Z,2.60
2023-03-16T06:47:57.118Z,2.70
2023-03-16T06:50:24.424Z,2.70
2023-03-16T06:52:51.778Z,2.80
2023-03-16T06:55:19.249Z,3.00
2023-03-16T06:57:47.003Z,3.10
2023-03-16T07:00:16.603Z,3.10
2023-03-16T07:02:43.984Z,3.20
2023-03-16T07:05:15.548Z,3.30
2023-03-16T07:07:44.251Z,3.50
2023-03-16T07:10:17.319Z,3.60
2023-03-16T07:12:45.592Z,3.50
2023-03-16T07:15:14.363Z,3.60
2023-03-16T07:17:42.778Z,3.50
2023-03-16T07:20:12.801Z,3.70
2023-03-16T07:22:41.829Z,3.60
2023-03-16T07:25:11.427Z,3.80
2023-03-16T07:27:38.991Z,3.70
2023-03-16T07:30:07.599Z,3.90
2023-03-16T07:32:34.993Z,4.00
2023-03-16T07:35:02.396Z,4.00
2023-03-16T07:37:29.804Z,3.90
2023-03-16T07:39:57.079Z,4.10
2023-03-16T07:42:24.790Z,4.20
2023-03-16T07:44:52.943Z,4.30
2023-03-16T07:47:21.071Z,4.30
2023-03-16T07:49:48.402Z,4.40
2023-03-16T07:52:15.723Z,4.60
2023-03-16T07:54:43.383Z,4.50
2023-03-16T07:57:11.922Z,4.70
2023-03-16T07:59:39.381Z,4.70
2023-03-16T08:02:11.815Z,4.80
2023-03-16T08:04:42.347Z,5.00
2023-03-16T08:07:13.186Z,5.10
2023-03-16T08:09:41.352Z,5.10
2023-03-16T08:12:10.063Z,5.10
2023-03-16T08:14:37.759Z,5.30
2023-03-16T08:17:07.549Z,5.40
2023-03-16T08:19:35.081Z,5.30
2023-03-16T08:22:02.453Z,5.50
2023-03-16T08:24:31.095Z,5.60
2023-03-16T08:27:00.036Z,5.60
2023-03-16T08:29:28.453Z,5.60
2023-03-16T08:31:56.574Z,5.70
2023-03-16T08:34:25.883Z,5.90
2023-03-16T08:36:54.099Z,5.90
2023-03-16T08:39:21.744Z,6.00
2023-03-16T08:41:49.085Z,6.00
2023-03-16T08:44:17.524Z,6.10
2023-03-16T08:46:45.311Z,6.00
2023-03-16T08:49:13.956Z,6.10
2023-03-16T08:51:44.775Z,6.30
2023-03-16T08:54:12.378Z,6.40
2023-03-16T08:56:39.657Z,6.50
2023-03-16T08:59:09.010Z,6.60
2023-03-16T09:01:40.475Z,6.70
2023-03-16T09:04:07.941Z,6.80
2023-03-16T09:06:36.167Z,6.90
2023-03-16T09:09:04.567Z,7.00
2023-03-16T09:11:33.745Z,7.30
2023-03-16T09:14:01.344Z,7.40
2023-03-16T09:16:30.885Z,7.50
2023-03-16T09:18:58.760Z,7.50
2023-03-16T09:21:26.617Z,7.60
2023-03-16T09:23:55.027Z,7.80
2023-03-16T09:26:22.663Z,8.00
2023-03-16T09:28:50.026Z,8.10
2023-03-16T09:31:20.309Z,8.30
2023-03-16T09:33:48.566Z,8.30
2023-03-16T09:36:16.553Z,8.40
2023-03-16T09:38:44.887Z,8.60
2023-03-16T09:41:51.462Z,8.70
2023-03-16T09:44:39.965Z,8.90
2023-03-16T09:47:12.061Z,8.90
2023-03-16T09:49:50.077Z,9.00
2023-03-16T09:52:55.464Z,9.30
2023-03-16T09:55:33.253Z,9.20
2023-03-16T09:58:05.483Z,9.30
2023-03-16T10:00:48.789Z,9.30
2023-03-16T10:03:39.792Z,9.40
2023-03-16T10:06:13.878Z,9.50
2023-03-16T10:09:28.811Z,9.80
2023-03-16T10:11:58.802Z,10.10
2023-03-16T10:15:04.852Z,10.40
2023-03-16T10:17:50.064Z,10.50
2023-03-16T10:20:23.465Z,10.70
2023-03-16T10:22:54.512Z,11.00
2023-03-16T10:25:48.652Z,11.00
2023-03-16T10:28:26.307Z,11.10
2023-03-16T10:30:59.349Z,11.20
2023-03-16T10:33:33.743Z,11.30
2023-03-16T10:36:27.558Z,11.40
2023-03-16T10:39:04.962Z,11.40
2023-03-16T10:41:38.663Z,11.50
2023-03-16T10:44:28.567Z,11.60
2023-03-16T10:47:08.483Z,11.60
2023-03-16T10:49:41.949Z,11.70
2023-03-16T10:52:43.295Z,11.50
2023-03-16T10:55:29.192Z,12.30
2023-03-16T10:57:57.337Z,12.30
2023-03-16T11:00:41.857Z,12.60
2023-03-16T11:03:41.759Z,13.00
2023-03-16T11:06:33.415Z,13.20
2023-03-16T11:09:34.609Z,13.30
2023-03-16T11:12:31.337Z,13.90
2023-03-16T11:15:25.923Z,14.10
2023-03-16T11:17:54.692Z,14.20
2023-03-16T11:20:32.634Z,14.50
2023-03-16T11:23:02.552Z,14.30
2023-03-16T11:25:42.433Z,14.50
2023-03-16T11:28:29.910Z,14.30
2023-03-16T11:31:42.826Z,14.70
2023-03-16T11:34:20.110Z,15.00
2023-03-16T11:38:09.751Z,14.80
2023-03-16T11:41:10.812Z,14.90
2023-03-16T11:43:59.387Z,15.00
2023-03-16T11:46:55.619Z,15.00
2023-03-16T11:50:15.706Z,15.50
2023-03-16T11:54:19.835Z,15.40
2023-03-16T11:57:59.393Z,15.60
2023-03-16T12:00:57.781Z,15.70
2023-03-16T12:04:48.911Z,15.60
2023-03-16T12:07:55.690Z,15.60
2023-03-16T12:11:00.264Z,15.80
2023-03-16T12:14:23.394Z,16.50
2023-03-16T12:17:15.794Z,15.90
2023-03-16T12:20:32.089Z,16.00
2023-03-16T12:23:19.581Z,15.80
2023-03-16T12:25:50.413Z,16.10
2023-03-16T12:28:32.203Z,16.10
2023-03-16T12:31:56.065Z,16.20
2023-03-16T12:35:00.156Z,16.20
2023-03-16T12:37:52.320Z,16.40
2023-03-16T12:40:49.971Z,16.20
2023-03-16T12:44:08.102Z,16.60
2023-03-16T12:47:13.120Z,16.60
2023-03-16T12:49:41.858Z,16.60
2023-03-16T12:52:14.573Z,16.80
2023-03-16T12:55:40.333Z,17.30
2023-03-16T12:58:09.504Z,17.50
2023-03-16T13:00:42.845Z,17.20
2023-03-16T13:03:23.132Z,17.30
2023-03-16T13:06:00.803Z,17.60
2023-03-16T13:08:28.989Z,17.70
2023-03-16T13:11:07.365Z,17.70
2023-03-16T13:13:36.341Z,17.40
2023-03-16T13:16:22.335Z,17.40
2023-03-16T13:18:49.834Z,17.60
2023-03-16T13:21:41.262Z,17.20
2023-03-16T13:24:35.394Z,17.30
2023-03-16T13:27:30.083Z,17.20
2023-03-16T13:30:29.019Z,17.20
2023-03-16T13:33:22.882Z,17.10
2023-03-16T13:35:53.565Z,17.30
2023-03-16T13:38:28.463Z,17.50
2023-03-16T13:41:09.618Z,17.00
2023-03-16T13:43:43.916Z,17.30
2023-03-16T13:46:19.014Z,17.80
2023-03-16T13:48:49.834Z,17.70
2023-03-16T13:51:22.769Z,17.90
2023-03-16T13:53:50.915Z,17.90
2023-03-16T13:56:27.071Z,17.70
2023-03-16T13:58:57.081Z,17.80
2023-03-16T14:01:32.124Z,17.50
2023-03-16T14:04:11.905Z,17.40
2023-03-16T14:06:41.391Z,17.70
2023-03-16T14:09:21.784Z,18.10
2023-03-16T14:11:49.128Z,18.40
2023-03-16T14:14:36.806Z,18.10
2023-03-16T14:17:16.991Z,17.70
2023-03-16T14:19:59.645Z,18.20
2023-03-16T14:22:38.393Z,18.30
2023-03-16T14:25:07.520Z,18.50
2023-03-16T14:27:40.734Z,18.20
2023-03-16T14:30:28.008Z,18.50
2023-03-16T14:33:05.677Z,18.50
2023-03-16T14:35:44.001Z,18.60
2023-03-16T14:38:35.287Z,18.40
2023-03-16T14:41:26.429Z,18.30
2023-03-16T14:44:01.790Z,17.90
2023-03-16T14:46:42.881Z,18.00
2023-03-16T14:49:38.587Z,17.80
2023-03-16T14:52:29.761Z,18.30
2023-03-16T14:54:58.269Z,18.40
2023-03-16T14:57:26.819Z,18.20
2023-03-16T14:59:55.662Z,18.20
2023-03-16T15:02:32.720Z,18.40
2023-03-16T15:05:02.054Z,18.60
2023-03-16T15:07:35.599Z,18.50
2023-03-16T15:10:27.409Z,18.30
2023-03-16T15:12:56.027Z,18.40
2023-03-16T15:15:27.485Z,18.20
2023-03-16T15:17:55.120Z,18.10
2023-03-16T15:20:32.879Z,17.90
2023-03-16T15:23:01.824Z,17.20
2023-03-16T15:25:43.247Z,17.20
2023-03-16T15:28:22.029Z,17.60
2023-03-16T15:30:53.551Z,17.10
2023-03-16T15:33:22.181Z,17.20
2023-03-16T15:35:53.391Z,16.80
2023-03-16T15:38:39.793Z,16.70
2023-03-16T15:41:11.548Z,16.70
2023-03-16T15:43:39.655Z,16.70
2023-03-16T15:46:07.346Z,16.70
2023-03-16T15:48:34.821Z,16.60
2023-03-16T15:51:27.687Z,16.60
2023-03-16T15:54:06.925Z,16.20
2023-03-16T15:56:53.162Z,16.30
2023-03-16T15:59:24.200Z,16.10
2023-03-16T16:01:52.749Z,16.20
2023-03-16T16:04:24.357Z,16.40
2023-03-16T16:06:57.761Z,16.50
2023-03-16T16:09:25.774Z,16.30
2023-03-16T16:11:53.117Z,16.30
2023-03-16T16:14:25.332Z,16.20
2023-03-16T16:16:54.471Z,16.00
2023-03-16T16:19:22.147Z,16.00
2023-03-16T16:21:49.513Z,15.80
2023-03-16T16:24:18.425Z,15.80
2023-03-16T16:26:54.312Z,16.00
2023-03-16T16:29:30.143Z,15.70
2023-03-16T16:31:57.609Z,15.90
2023-03-16T16:34:27.031Z,15.90
2023-03-16T16:36:57.153Z,15.80
2023-03-16T16:39:25.413Z,15.80
2023-03-16T16:41:56.413Z,15.60
2023-03-16T16:44:30.445Z,15.60
2023-03-16T16:46:59.812Z,15.70
2023-03-16T16:49:31.297Z,15.60
2023-03-16T16:51:59.780Z,15.60
2023-03-16T16:54:31.628Z,15.40
2023-03-16T16:57:01.212Z,15.30
2023-03-16T16:59:38.119Z,15.50
2023-03-16T17:02:42.196Z,15.20
2023-03-16T17:05:28.435Z,15.40
2023-03-16T17:07:56.355Z,15.10
2023-03-16T17:10:27.205Z,15.00
2023-03-16T17:12:57.114Z,14.70
2023-03-16T17:15:30.271Z,14.90
2023-03-16T17:18:14.306Z,14.50
2023-03-16T17:20:41.988Z,14.40
2023-03-16T17:23:37.132Z,14.40
2023-03-16T17:26:39.707Z,14.20
2023-03-16T17:29:26.987Z,14.30
2023-03-16T17:31:54.423Z,14.20
2023-03-16T17:34:27.324Z,14.20
2023-03-16T17:36:55.793Z,14.00
2023-03-16T17:39:34.484Z,14.10
2023-03-16T17:42:19.888Z,14.00
2023-03-16T17:44:53.274Z,13.90
2023-03-16T17:47:26.536Z,13.90
2023-03-16T17:49:55.074Z,13.70
2023-03-16T17:52:29.197Z,13.90
2023-03-16T17:54:56.689Z,13.60
2023-03-16T17:57:34.185Z,13.60
2023-03-16T18:00:18.356Z,13.50
2023-03-16T18:03:17.698Z,13.30
2023-03-16T18:05:46.222Z,13.40
2023-03-16T18:08:25.975Z,13.30
2023-03-16T18:11:06.793Z,13.30
2023-03-16T18:13:39.412Z,13.10
2023-03-16T18:16:08.255Z,13.10
2023-03-16T18:18:41.135Z,13.10
2023-03-16T18:21:19.017Z,13.10
2023-03-16T18:23:46.715Z,13.00
2023-03-16T18:26:14.352Z,13.00
2023-03-16T18:28:42.019Z,13.00
2023-03-16T18:31:23.912Z,12.90
2023-03-16T18:33:59.716Z,13.00
2023-03-16T18:36:37.784Z,12.90
2023-03-16T18:39:16.215Z,12.80
2023-03-16T18:41:44.650Z,12.60
2023-03-16T18:44:21.739Z,12.70
2023-03-16T18:46:51.823Z,12.70
2023-03-16T18:49:36.674Z,12.70
2023-03-16T18:52:16.665Z,12.40
2023-03-16T18:54:46.216Z,12.50
2023-03-16T18:57:24.886Z,12.50
2023-03-16T18:59:52.612Z,12.60
2023-03-16T19:02:43.133Z,12.60
2023-03-16T19:05:30.606Z,12.40
2023-03-16T19:07:58.074Z,12.40
2023-03-16T19:10:38.637Z,12.30
2023-03-16T19:13:17.266Z,12.30
2023-03-16T19:15:45.767Z,12.30
2023-03-16T19:18:13.244Z,12.10
2023-03-16T19:20:43.689Z,12.40
2023-03-16T19:23:32.961Z,12.40
2023-03-16T19:26:00.674Z,12.00
2023-03-16T19:28:39.062Z,11.80
2023-03-16T19:31:30.287Z,11.80
2023-03-16T19:33:58.581Z,11.80
2023-03-16T19:36:30.560Z,11.70
2023-03-16T19:38:59.595Z,11.70
2023-03-16T19:41:37.160Z,11.80
2023-03-16T19:44:19.833Z,11.70
2023-03-16T19:46:48.809Z,11.60
2023-03-16T19:49:24.855Z,11.60
2023-03-16T19:51:55.192Z,11.60
2023-03-16T19:54:32.137Z,11.60
2023-03-16T19:57:11.411Z,11.60
2023-03-16T19:59:40.325Z,11.50
2023-03-16T20:02:40.694Z,11.30
2023-03-16T20:05:23.535Z,11.50
2023-03-16T20:07:51.557Z,11.40
2023-03-16T20:10:32.585Z,11.20
2023-03-16T20:13:01.717Z,11.30
2023-03-16T20:15:32.646Z,11.20
2023-03-16T20:18:01.239Z,11.20
2023-03-16T20:20:37.517Z,11.40
2023-03-16T20:23:29.333Z,11.30
2023-03-16T20:26:02.777Z,11.20
2023-03-16T20:28:36.304Z,11.30
2023-03-16T20:31:16.119Z,11.10
2023-03-16T20:33:43.471Z,11.10
2023-03-16T20:36:15.991Z,11.20
2023-03-16T20:38:43.613Z,11.00
2023-03-16T20:41:30.409Z,11.10
2023-03-16T20:44:01.781Z,11.10
2023-03-16T20:46:33.007Z,11.00
2023-03-16T20:49:00.890Z,10.90
2023-03-16T20:51:28.927Z,10.70
2023-03-16T20:53:56.280Z,10.80
2023-03-16T20:56:26.634Z,10.90
2023-03-16T20:58:56.154Z,10.80
2023-03-16T21:01:24.625Z,10.60
2023-03-16T21:03:55.665Z,10.80
2023-03-16T21:06:31.687Z,10.80
2023-03-16T21:09:03.340Z,10.70
2023-03-16T21:11:38.847Z,10.50
2023-03-16T21:14:22.041Z,10.70
2023-03-16T21:16:50.986Z,10.60
2023-03-16T21:19:23.421Z,10.60
2023-03-16T21:21:51.508Z,10.50
2023-03-16T21:24:18.840Z,10.50
2023-03-16T21:26:47.543Z,10.60
2023-03-16T21:29:23.824Z,10.40
2023-03-16T21:31:51.830Z,10.50
2023-03-16T21:34:29.456Z,10.40
2023-03-16T21:36:56.752Z,10.30
2023-03-16T21:39:25.356Z,10.20
2023-03-16T21:41:53.580Z,10.20
2023-03-16T21:44:21.290Z,10.20
2023-03-16T21:46:48.842Z,10.00
2023-03-16T21:49:16.433Z,10.10
2023-03-16T21:51:44.023Z,10.10
2023-03-16T21:54:17.954Z,10.20
2023-03-16T21:56:47.748Z,10.20
2023-03-16T21:59:15.564Z,10.10
2023-03-16T22:01:58.657Z,10.10
2023-03-16T22:04:28.013Z,10.00
2023-03-16T22:06:55.716Z,10.00
2023-03-16T22:09:24.923Z,10.00
2023-03-16T22:11:52.330Z,10.00
2023-03-16T22:14:19.636Z,9.90
2023-03-16T22:16:46.986Z,10.00
2023-03-16T22:19:15.888Z,9.90
2023-03-16T22:21:46.551Z,10.00
2023-03-16T22:24:26.410Z,10.00
2023-03-16T22:26:54.937Z,9.90
2023-03-16T22:29:31.283Z,9.80
2023-03-16T22:32:08.544Z,10.00
2023-03-16T22:34:56.475Z,9.90
2023-03-16T22:37:28.699Z,9.80
2023-03-16T22:39:58.452Z,9.80
2023-03-16T22:42:38.816Z,9.80
2023-03-16T22:45:26.937Z,9.80
2023-03-16T22:47:57.544Z,9.60
2023-03-16T22:50:28.312Z,9.60
2023-03-16T22:53:04.188Z,9.60
2023-03-16T22:55:39.341Z,9.70
2023-03-16T22:58:38.415Z,9.60
2023-03-16T23:01:48.610Z,9.60
2023-03-16T23:04:30.281Z,9.60
2023-03-16T23:06:59.100Z,9.60
2023-03-16T23:09:26.567Z,9.60
2023-03-16T23:11:56.554Z,9.50
2023-03-16T23:14:30.517Z,9.40
2023-03-16T23:16:57.877Z,9.50
2023-03-16T23:19:34.160Z,9.40
2023-03-16T23:22:06.843Z,9.40
2023-03-16T23:24:36.376Z,9.40
2023-03-16T23:27:07.322Z,9.30
2023-03-16T23:29:34.686Z,9.40
2023-03-16T23:32:02.365Z,9.10
2023-03-16T23:34:29.725Z,9.40
2023-03-16T23:36:57.044Z,9.30
2023-03-16T23:39:24.364Z,9.30
2023-03-16T23:41:52.989Z,9.20
2023-03-16T23:44:27.397Z,9.20
2023-03-16T23:46:54.945Z,9.20
